Terminal Aerodrome Forecast
Issued by NWS Charleston, SC

Home | Current Version | Previous Version | Text Only | Print | Product List | Glossary On
Versions: 1 2 3 4 5 6 7 8 9 10 11 12 13 14 15 16 17 18 19 20 21 22 23 24 25 26 27 28 29 30 31 32 33 34 35
000
FTUS42 KCHS 250525
TAFCHS
TAF
KCHS 250525Z 2506/2606 VRB03KT P6SM FEW050 SCT250
     FM251000 00000KT 4SM BR SCT002
     FM251400 06005KT P6SM FEW035
     FM251800 09007KT P6SM SCT040=

USA.gov is the U.S. government's official web portal to all federal, state and local government web resources and services.